Time;durP1;ratioP1;P1;durP2;ratioP2;P2;SDS_P1;SDS_P2;PMS_P1;PMS_P2;Temp;Humidity;BMP_temperature;BMP_pressure;BME280_temperature;BME280_humidity;BME280_pressure;Samples;Min_cycle;Max_cycle;Signal;HPM_P1;HPM_P2
2021/11/21 00:01:06;;;;;;;40.10;24.85;;;;;;;;;;5093244;28;20058;-67
2021/11/21 00:03:33;;;;;;;37.97;23.85;;;;;;;;;;5094255;28;20103;-66
2021/11/21 00:05:59;;;;;;;39.50;21.70;;;;;;;;;;5092861;28;20020;-66
2021/11/21 00:08:25;;;;;;;33.58;20.38;;;;;;;;;;5092423;28;20024;-66
2021/11/21 00:10:51;;;;;;;29.92;18.23;;;;;;;;;;5094306;28;20051;-67
2021/11/21 00:13:17;;;;;;;31.15;17.65;;;;;;;;;;5092422;28;20176;-66
2021/11/21 00:15:44;;;;;;;31.35;17.52;;;;;;;;;;5093972;28;20483;-67
2021/11/21 00:18:11;;;;;;;30.05;18.90;;;;;;;;;;5094038;28;20054;-67
2021/11/21 00:20:38;;;;;;;35.47;20.77;;;;;;;;;;5093549;28;20021;-67
2021/11/21 00:23:04;;;;;;;33.15;19.80;;;;;;;;;;5094128;28;20056;-66
2021/11/21 00:25:31;;;;;;;38.42;20.02;;;;;;;;;;5093876;28;20016;-67
2021/11/21 00:27:57;;;;;;;34.13;19.88;;;;;;;;;;5092123;28;20022;-66
2021/11/21 00:30:23;;;;;;;30.45;16.80;;;;;;;;;;5093933;28;20026;-66
2021/11/21 00:32:49;;;;;;;25.73;16.17;;;;;;;;;;5094183;28;20486;-67
2021/11/21 00:35:15;;;;;;;26.60;16.23;;;;;;;;;;5093358;28;20047;-68
2021/11/21 00:37:42;;;;;;;30.77;16.80;;;;;;;;;;5093703;28;20035;-67
2021/11/21 00:40:08;;;;;;;29.33;17.50;;;;;;;;;;5094000;28;20460;-66
2021/11/21 00:42:35;;;;;;;48.50;25.38;;;;;;;;;;5093277;28;20077;-66
2021/11/21 00:45:01;;;;;;;46.08;26.13;;;;;;;;;;5093582;28;20099;-66
2021/11/21 00:47:27;;;;;;;47.28;25.95;;;;;;;;;;5093813;28;20106;-65
2021/11/21 00:49:53;;;;;;;41.70;22.25;;;;;;;;;;5093182;28;20028;-66
2021/11/21 00:52:21;;;;;;;43.70;22.58;;;;;;;;;;5093299;28;20082;-66
2021/11/21 00:54:52;;;;;;;40.03;23.73;;;;;;;;;;5092169;28;20028;-66
2021/11/21 00:57:18;;;;;;;51.25;25.80;;;;;;;;;;5091851;28;20028;-66
2021/11/21 00:59:44;;;;;;;43.88;24.50;;;;;;;;;;5093677;28;20024;-67
2021/11/21 01:02:12;;;;;;;43.15;24.20;;;;;;;;;;5093720;28;20035;-66
2021/11/21 01:04:39;;;;;;;46.00;24.38;;;;;;;;;;5093034;28;20012;-68
2021/11/21 01:07:05;;;;;;;41.17;21.75;;;;;;;;;;5093245;28;20148;-67
2021/11/21 01:09:32;;;;;;;47.17;23.88;;;;;;;;;;5092714;28;20081;-69
2021/11/21 01:12:00;;;;;;;43.60;23.45;;;;;;;;;;5093498;28;20036;-66
2021/11/21 01:14:26;;;;;;;42.45;23.05;;;;;;;;;;5097421;28;20019;-67
2021/11/21 01:16:52;;;;;;;25.20;16.10;;;;;;;;;;5097115;28;20020;-67
2021/11/21 01:19:19;;;;;;;22.55;13.55;;;;;;;;;;5097371;28;20024;-67
2021/11/21 01:21:45;;;;;;;26.23;13.93;;;;;;;;;;5097500;28;20032;-67
2021/11/21 01:24:11;;;;;;;20.65;13.35;;;;;;;;;;5097300;28;20032;-67
2021/11/21 01:26:38;;;;;;;32.67;17.17;;;;;;;;;;5097513;28;20024;-67
2021/11/21 01:29:04;;;;;;;29.88;15.68;;;;;;;;;;5095961;28;20384;-67
2021/11/21 01:31:30;;;;;;;26.20;15.25;;;;;;;;;;5096692;28;20115;-67
2021/11/21 01:33:56;;;;;;;19.63;11.90;;;;;;;;;;5097111;28;20465;-67
2021/11/21 01:36:23;;;;;;;17.50;11.15;;;;;;;;;;5095823;28;20024;-67
2021/11/21 01:38:49;;;;;;;16.88;11.23;;;;;;;;;;5096910;28;20042;-67
2021/11/21 01:41:16;;;;;;;20.08;10.93;;;;;;;;;;5097056;28;20107;-67
2021/11/21 01:43:42;;;;;;;17.45;10.40;;;;;;;;;;5095593;28;20082;-67
2021/11/21 01:46:09;;;;;;;19.30;11.65;;;;;;;;;;5096454;28;20020;-67
2021/11/21 01:48:36;;;;;;;18.50;11.18;;;;;;;;;;5096994;28;20091;-67
2021/11/21 01:51:07;;;;;;;21.83;11.82;;;;;;;;;;5095178;28;20047;-65
2021/11/21 01:53:34;;;;;;;18.23;10.35;;;;;;;;;;5096387;28;20395;-65
2021/11/21 01:56:00;;;;;;;22.33;11.90;;;;;;;;;;5095386;28;20028;-65
2021/11/21 01:58:26;;;;;;;23.25;12.68;;;;;;;;;;5096671;28;20028;-65
2021/11/21 02:00:53;;;;;;;19.27;11.73;;;;;;;;;;5094939;28;20379;-65
2021/11/21 02:03:19;;;;;;;23.58;12.95;;;;;;;;;;5096578;28;20074;-65
2021/11/21 02:05:46;;;;;;;20.88;12.23;;;;;;;;;;5096062;28;20102;-65
2021/11/21 02:08:13;;;;;;;17.02;10.40;;;;;;;;;;5097056;28;20035;-65
2021/11/21 02:10:39;;;;;;;16.90;9.95;;;;;;;;;;5096281;28;20085;-65
2021/11/21 02:13:07;;;;;;;17.25;8.40;;;;;;;;;;5111658;28;20032;-65
2021/11/21 02:15:33;;;;;;;19.33;9.65;;;;;;;;;;5095161;28;20020;-66
2021/11/21 02:18:00;;;;;;;16.73;10.45;;;;;;;;;;5096305;28;20032;-65
2021/11/21 02:20:43;;;;;;;15.95;10.52;;;;;;;;;;5095893;28;20028;-65
2021/11/21 02:23:09;;;;;;;18.60;9.50;;;;;;;;;;5096045;28;20093;-66
2021/11/21 02:25:37;;;;;;;17.75;9.68;;;;;;;;;;5096281;28;20028;-66
2021/11/21 02:28:03;;;;;;;16.73;9.25;;;;;;;;;;5095887;28;20024;-65
2021/11/21 02:30:30;;;;;;;19.77;10.93;;;;;;;;;;5096468;28;20414;-65
2021/11/21 02:32:56;;;;;;;19.17;12.23;;;;;;;;;;5096173;28;20024;-66
2021/11/21 02:35:23;;;;;;;20.85;11.25;;;;;;;;;;5095632;28;20020;-66
2021/11/21 02:37:49;;;;;;;20.88;11.68;;;;;;;;;;5096075;28;20103;-68
2021/11/21 02:40:16;;;;;;;19.40;10.70;;;;;;;;;;5094613;28;20080;-66
2021/11/21 02:42:43;;;;;;;19.92;10.00;;;;;;;;;;5095445;28;20046;-66
2021/11/21 02:45:11;;;;;;;16.08;9.57;;;;;;;;;;5095806;28;20028;-66
2021/11/21 02:47:37;;;;;;;16.17;8.90;;;;;;;;;;5096025;28;20065;-66
2021/11/21 02:50:05;;;;;;;14.07;7.97;;;;;;;;;;5095299;28;20024;-66
2021/11/21 02:52:31;;;;;;;15.55;9.00;;;;;;;;;;5111118;28;20123;-66
2021/11/21 02:54:59;;;;;;;15.13;9.60;;;;;;;;;;5095179;28;20110;-66
2021/11/21 02:57:26;;;;;;;17.02;9.00;;;;;;;;;;5095448;28;20111;-66
2021/11/21 02:59:53;;;;;;;14.40;8.38;;;;;;;;;;5095563;28;20020;-66
2021/11/21 03:02:19;;;;;;;16.02;8.68;;;;;;;;;;5095139;28;20028;-66
2021/11/21 03:04:49;;;;;;;13.18;8.07;;;;;;;;;;5095397;28;20556;-66
2021/11/21 03:07:15;;;;;;;14.15;8.10;;;;;;;;;;5095419;28;20085;-66
2021/11/21 03:09:42;;;;;;;13.65;7.40;;;;;;;;;;5094900;28;20031;-66
2021/11/21 03:12:08;;;;;;;16.17;8.52;;;;;;;;;;5095365;28;20039;-66
2021/11/21 03:14:34;;;;;;;13.82;8.27;;;;;;;;;;5110894;28;20020;-66
2021/11/21 03:17:00;;;;;;;18.98;11.00;;;;;;;;;;5094833;28;20032;-66
2021/11/21 03:19:27;;;;;;;15.13;9.25;;;;;;;;;;5095111;28;20384;-66
2021/11/21 03:21:53;;;;;;;14.35;9.23;;;;;;;;;;5110827;28;20027;-66
2021/11/21 03:24:20;;;;;;;17.25;9.10;;;;;;;;;;5094752;28;20086;-66
2021/11/21 03:26:46;;;;;;;20.67;10.80;;;;;;;;;;5095499;28;20095;-66
2021/11/21 03:29:13;;;;;;;18.42;10.27;;;;;;;;;;5094797;28;20073;-66
2021/11/21 03:31:39;;;;;;;18.42;10.65;;;;;;;;;;5094562;28;20427;-66
2021/11/21 03:34:06;;;;;;;18.40;10.60;;;;;;;;;;5093590;28;20027;-66
2021/11/21 03:36:33;;;;;;;21.08;11.05;;;;;;;;;;5094156;28;20495;-66
2021/11/21 03:39:00;;;;;;;17.90;10.50;;;;;;;;;;5094345;28;20098;-66
2021/11/21 03:41:26;;;;;;;17.58;10.07;;;;;;;;;;5094678;28;20054;-66
2021/11/21 03:43:53;;;;;;;21.35;10.13;;;;;;;;;;5094698;28;20016;-66
2021/11/21 03:46:19;;;;;;;19.50;8.80;;;;;;;;;;5094226;28;20020;-66
2021/11/21 03:48:46;;;;;;;15.43;7.32;;;;;;;;;;5094492;28;20028;-66
2021/11/21 03:51:12;;;;;;;13.02;7.20;;;;;;;;;;5109632;28;20403;-66
2021/11/21 03:53:39;;;;;;;18.05;8.65;;;;;;;;;;5094513;28;20032;-66
2021/11/21 03:56:05;;;;;;;14.07;6.97;;;;;;;;;;5094329;28;20024;-66
2021/11/21 03:58:31;;;;;;;10.35;7.18;;;;;;;;;;5109670;28;20391;-66
2021/11/21 04:00:58;;;;;;;13.65;7.20;;;;;;;;;;5094610;28;20043;-66
2021/11/21 04:03:25;;;;;;;15.15;8.77;;;;;;;;;;5094463;28;20028;-66
2021/11/21 04:05:51;;;;;;;15.27;8.73;;;;;;;;;;5109615;28;20361;-66
2021/11/21 04:08:17;;;;;;;15.85;9.18;;;;;;;;;;5094192;28;20020;-66
2021/11/21 04:10:43;;;;;;;14.13;8.38;;;;;;;;;;5094332;28;20446;-66
2021/11/21 04:13:10;;;;;;;10.38;6.93;;;;;;;;;;5093670;28;20054;-66
2021/11/21 04:15:37;;;;;;;13.70;7.57;;;;;;;;;;5093990;28;20417;-66
2021/11/21 04:18:03;;;;;;;12.20;6.35;;;;;;;;;;5094003;28;20028;-66
2021/11/21 04:20:29;;;;;;;14.15;7.20;;;;;;;;;;5093661;28;20552;-66
2021/11/21 04:22:56;;;;;;;12.82;6.65;;;;;;;;;;5094308;28;20387;-66
2021/11/21 04:25:22;;;;;;;13.60;7.75;;;;;;;;;;5094042;28;20055;-66
2021/11/21 04:27:48;;;;;;;11.38;7.13;;;;;;;;;;5093613;28;20530;-66
2021/11/21 04:30:15;;;;;;;14.80;8.57;;;;;;;;;;5093772;28;20024;-66
2021/11/21 04:32:42;;;;;;;15.38;8.32;;;;;;;;;;5093792;28;20032;-66
2021/11/21 04:35:09;;;;;;;16.00;8.63;;;;;;;;;;5093406;28;20514;-66
2021/11/21 04:37:35;;;;;;;15.68;8.82;;;;;;;;;;5093761;28;20538;-66
2021/11/21 04:40:04;;;;;;;18.48;8.93;;;;;;;;;;5093682;28;20024;-66
2021/11/21 04:42:30;;;;;;;14.98;8.45;;;;;;;;;;5093330;28;20032;-66
2021/11/21 04:44:56;;;;;;;15.85;8.23;;;;;;;;;;5109341;28;20105;-66
2021/11/21 04:47:22;;;;;;;17.10;9.95;;;;;;;;;;5109088;28;20024;-66
2021/11/21 04:49:48;;;;;;;15.85;9.38;;;;;;;;;;5093256;28;20353;-66
2021/11/21 04:52:15;;;;;;;16.08;8.77;;;;;;;;;;5093245;28;20079;-66
2021/11/21 04:54:41;;;;;;;15.55;9.65;;;;;;;;;;5093114;28;20026;-66
2021/11/21 04:57:08;;;;;;;18.30;11.50;;;;;;;;;;5093498;28;20051;-67
2021/11/21 04:59:34;;;;;;;19.40;11.63;;;;;;;;;;5093527;28;20074;-66
2021/11/21 05:02:01;;;;;;;21.70;13.00;;;;;;;;;;5091782;28;20028;-66
2021/11/21 05:04:27;;;;;;;24.55;12.48;;;;;;;;;;5093416;28;20059;-66
2021/11/21 05:06:54;;;;;;;19.13;11.65;;;;;;;;;;5093554;28;20031;-66
2021/11/21 05:09:20;;;;;;;18.77;10.02;;;;;;;;;;5093272;28;20023;-66
2021/11/21 05:11:46;;;;;;;19.73;11.25;;;;;;;;;;5092059;28;20116;-66
2021/11/21 05:14:15;;;;;;;21.50;11.50;;;;;;;;;;5092056;28;20028;-66
2021/11/21 05:16:42;;;;;;;25.45;14.15;;;;;;;;;;5092983;28;20468;-66
2021/11/21 05:19:08;;;;;;;22.27;13.43;;;;;;;;;;5092096;28;20020;-66
2021/11/21 05:21:34;;;;;;;24.83;14.73;;;;;;;;;;5093300;28;20140;-67
2021/11/21 05:24:01;;;;;;;23.25;14.35;;;;;;;;;;5092978;28;20016;-67
2021/11/21 05:26:27;;;;;;;27.70;14.70;;;;;;;;;;5093270;28;20020;-66
2021/11/21 05:28:54;;;;;;;20.65;11.98;;;;;;;;;;5091940;28;20020;-66
2021/11/21 05:31:20;;;;;;;27.98;17.30;;;;;;;;;;5092812;28;20468;-66
2021/11/21 05:33:47;;;;;;;28.48;15.38;;;;;;;;;;5093397;28;20043;-66
2021/11/21 05:36:15;;;;;;;26.98;15.50;;;;;;;;;;5093173;28;20019;-66
2021/11/21 05:38:41;;;;;;;29.42;15.32;;;;;;;;;;5092743;28;20123;-66
2021/11/21 05:41:07;;;;;;;38.42;20.50;;;;;;;;;;5093163;28;20024;-66
2021/11/21 05:43:34;;;;;;;26.30;16.90;;;;;;;;;;5093274;28;20490;-66
2021/11/21 05:46:00;;;;;;;31.27;17.02;;;;;;;;;;5092625;28;20048;-66
2021/11/21 05:48:26;;;;;;;25.85;15.40;;;;;;;;;;5093144;28;20052;-66
2021/11/21 05:50:52;;;;;;;28.90;15.75;;;;;;;;;;5092371;28;20082;-66
2021/11/21 05:53:19;;;;;;;32.67;18.30;;;;;;;;;;5093001;28;20028;-66
2021/11/21 05:55:45;;;;;;;36.60;20.45;;;;;;;;;;5092935;28;20085;-66
2021/11/21 05:58:11;;;;;;;31.60;19.77;;;;;;;;;;5092852;28;20376;-66
2021/11/21 06:00:38;;;;;;;37.63;20.05;;;;;;;;;;5097615;28;20035;-66
2021/11/21 06:03:04;;;;;;;41.20;21.48;;;;;;;;;;5096873;28;20028;-66
2021/11/21 06:05:30;;;;;;;49.80;24.73;;;;;;;;;;5096198;28;20020;-67
2021/11/21 06:07:56;;;;;;;50.22;25.73;;;;;;;;;;5096571;28;20031;-66
2021/11/21 06:10:23;;;;;;;33.10;20.30;;;;;;;;;;5096637;28;20035;-66
2021/11/21 06:12:50;;;;;;;41.35;22.17;;;;;;;;;;5095953;28;20109;-67
2021/11/21 06:15:16;;;;;;;32.75;17.40;;;;;;;;;;5095023;28;20020;-66
2021/11/21 06:17:43;;;;;;;27.00;16.52;;;;;;;;;;5096308;28;20380;-66
2021/11/21 06:20:09;;;;;;;30.23;18.65;;;;;;;;;;5095945;28;20077;-66
2021/11/21 06:22:37;;;;;;;29.80;18.80;;;;;;;;;;5094936;28;20491;-66
2021/11/21 06:25:04;;;;;;;29.77;17.80;;;;;;;;;;5096175;28;20020;-66
2021/11/21 06:27:30;;;;;;;29.10;15.57;;;;;;;;;;5095817;28;20020;-67
2021/11/21 06:29:56;;;;;;;28.52;18.08;;;;;;;;;;5096074;28;20024;-65
2021/11/21 06:32:22;;;;;;;29.92;16.45;;;;;;;;;;5094695;28;20036;-65
2021/11/21 06:34:49;;;;;;;27.20;15.73;;;;;;;;;;5095586;28;20047;-66
2021/11/21 06:37:15;;;;;;;32.30;17.85;;;;;;;;;;5096108;28;20024;-66
2021/11/21 06:39:41;;;;;;;34.38;19.27;;;;;;;;;;5095919;28;20077;-66
2021/11/21 06:42:08;;;;;;;44.80;23.95;;;;;;;;;;5095468;28;20060;-66
2021/11/21 06:44:34;;;;;;;34.33;19.85;;;;;;;;;;5095840;28;20091;-66
2021/11/21 06:47:00;;;;;;;27.27;15.88;;;;;;;;;;5095665;28;20035;-66
2021/11/21 06:49:26;;;;;;;29.52;17.20;;;;;;;;;;5095836;28;20023;-66
2021/11/21 06:51:52;;;;;;;34.60;20.27;;;;;;;;;;5094127;28;20067;-67
2021/11/21 06:54:19;;;;;;;35.60;19.92;;;;;;;;;;5095215;28;20047;-67
2021/11/21 06:56:45;;;;;;;33.92;19.73;;;;;;;;;;5095539;28;20028;-66
2021/11/21 06:59:11;;;;;;;31.75;17.75;;;;;;;;;;5095702;28;20020;-66
2021/11/21 07:01:40;;;;;;;34.67;19.48;;;;;;;;;;5095296;28;20020;-67
2021/11/21 07:04:07;;;;;;;28.75;15.70;;;;;;;;;;5095434;28;20379;-67
2021/11/21 07:06:38;;;;;;;24.85;14.75;;;;;;;;;;5094074;28;20024;-66
2021/11/21 07:09:05;;;;;;;27.30;15.18;;;;;;;;;;5094946;28;20047;-66
2021/11/21 07:11:31;;;;;;;27.23;14.80;;;;;;;;;;5095213;28;20025;-66
2021/11/21 07:13:58;;;;;;;28.27;17.83;;;;;;;;;;5095342;28;20052;-66
2021/11/21 07:16:24;;;;;;;42.13;21.83;;;;;;;;;;5094924;28;20070;-66
2021/11/21 07:18:50;;;;;;;37.47;21.55;;;;;;;;;;5095145;28;20024;-66
2021/11/21 07:21:16;;;;;;;30.40;18.65;;;;;;;;;;5095660;28;20020;-66
2021/11/21 07:23:43;;;;;;;30.77;17.98;;;;;;;;;;5094647;28;20065;-66
2021/11/21 07:26:09;;;;;;;38.00;20.65;;;;;;;;;;5094983;28;20024;-66
2021/11/21 07:28:36;;;;;;;39.28;22.13;;;;;;;;;;5094972;28;20024;-66
2021/11/21 07:31:02;;;;;;;24.35;16.58;;;;;;;;;;5094425;28;20035;-66
2021/11/21 07:33:28;;;;;;;27.52;15.77;;;;;;;;;;5094904;28;20384;-66
2021/11/21 07:35:55;;;;;;;21.38;13.55;;;;;;;;;;5094800;28;20482;-66
2021/11/21 07:38:24;;;;;;;32.20;15.27;;;;;;;;;;5094329;28;20027;-66
2021/11/21 07:40:52;;;;;;;18.23;11.07;;;;;;;;;;5094714;28;20024;-66
2021/11/21 07:43:18;;;;;;;17.63;11.65;;;;;;;;;;5094499;28;20044;-66
2021/11/21 07:45:44;;;;;;;24.13;13.88;;;;;;;;;;5094640;28;20107;-66
2021/11/21 07:48:10;;;;;;;23.35;12.82;;;;;;;;;;5093217;28;20375;-66
2021/11/21 07:50:37;;;;;;;22.05;13.30;;;;;;;;;;5093937;28;20060;-66
2021/11/21 07:53:03;;;;;;;19.85;12.38;;;;;;;;;;5094661;28;20028;-66
2021/11/21 07:55:29;;;;;;;21.67;13.77;;;;;;;;;;5094353;28;20490;-66
2021/11/21 07:57:56;;;;;;;20.80;13.73;;;;;;;;;;5093949;28;20047;-66
2021/11/21 08:00:22;;;;;;;24.73;16.55;;;;;;;;;;5094881;28;20035;-66
2021/11/21 08:02:48;;;;;;;21.25;13.45;;;;;;;;;;5094511;28;20091;-66
2021/11/21 08:05:14;;;;;;;20.50;12.10;;;;;;;;;;5093847;28;20096;-66
2021/11/21 08:07:40;;;;;;;15.82;11.05;;;;;;;;;;5093209;28;20532;-67
2021/11/21 08:10:08;;;;;;;27.63;18.02;;;;;;;;;;5094122;28;20468;-67
2021/11/21 08:12:34;;;;;;;24.35;14.93;;;;;;;;;;5093849;28;20032;-67
2021/11/21 08:15:00;;;;;;;26.15;16.50;;;;;;;;;;5094127;28;20031;-67
2021/11/21 08:17:27;;;;;;;31.30;19.80;;;;;;;;;;5093997;28;20028;-67
2021/11/21 08:19:53;;;;;;;28.15;17.05;;;;;;;;;;5093597;28;20597;-67
2021/11/21 08:22:20;;;;;;;28.20;17.67;;;;;;;;;;5093569;28;20396;-67
2021/11/21 08:24:46;;;;;;;37.65;22.58;;;;;;;;;;5092623;28;20044;-67
2021/11/21 08:27:13;;;;;;;98.72;60.83;;;;;;;;;;5093432;28;20020;-67
2021/11/21 08:29:40;;;;;;;47.72;27.58;;;;;;;;;;5093801;28;20024;-68
2021/11/21 08:32:07;;;;;;;31.40;20.50;;;;;;;;;;5093705;28;20042;-67
2021/11/21 08:34:33;;;;;;;30.70;19.27;;;;;;;;;;5092129;28;20019;-67
2021/11/21 08:36:59;;;;;;;31.83;20.33;;;;;;;;;;5093662;28;20028;-67
2021/11/21 08:39:25;;;;;;;30.45;20.88;;;;;;;;;;5093948;28;20024;-66
2021/11/21 08:41:53;;;;;;;33.17;19.80;;;;;;;;;;5093274;28;20027;-67
2021/11/21 08:44:20;;;;;;;29.02;17.33;;;;;;;;;;5093630;28;20099;-67
2021/11/21 08:46:46;;;;;;;30.17;19.75;;;;;;;;;;5093224;28;20082;-67
2021/11/21 08:49:13;;;;;;;30.63;18.98;;;;;;;;;;5092337;28;20016;-67
2021/11/21 08:51:40;;;;;;;27.77;17.42;;;;;;;;;;5092041;28;20051;-67
2021/11/21 08:54:07;;;;;;;26.17;18.15;;;;;;;;;;5093114;28;20107;-67
2021/11/21 08:56:34;;;;;;;27.42;16.73;;;;;;;;;;5093514;28;20043;-67
2021/11/21 08:59:00;;;;;;;43.42;22.38;;;;;;;;;;5093503;28;20047;-68
2021/11/21 09:03:31;;;;;;;28.23;14.73;;;;;;;;;;5111463;27;20753;-67
2021/11/21 09:07:16;;;;;;;22.13;13.15;;;;;;;;;;5111943;27;20444;-67
2021/11/21 09:11:03;;;;;;;16.10;9.07;;;;;;;;;;5111768;27;20431;-67
2021/11/21 09:14:29;;;;;;;12.40;7.95;;;;;;;;;;5111471;27;20891;-65
2021/11/21 09:16:55;;;;;;;20.65;12.00;;;;;;;;;;5110825;28;20028;-66
2021/11/21 09:19:22;;;;;;;34.45;23.13;;;;;;;;;;5109934;28;20020;-67
2021/11/21 09:21:48;;;;;;;32.08;20.30;;;;;;;;;;5110899;28;20016;-67
2021/11/21 09:26:28;;;;;;;21.10;12.13;;;;;;;;;;5111402;27;20113;-66
2021/11/21 09:30:00;;;;;;;16.92;10.50;;;;;;;;;;5110990;27;20396;-66
2021/11/21 09:33:57;;;;;;;24.73;12.88;;;;;;;;;;5111660;27;20389;-66
2021/11/21 09:36:23;;;;;;;15.55;7.40;;;;;;;;;;5110882;28;20020;-67
2021/11/21 09:38:50;;;;;;;12.45;7.43;;;;;;;;;;5111097;28;20020;-66
2021/11/21 09:42:15;;;;;;;13.35;7.75;;;;;;;;;;5111809;27;20393;-67
2021/11/21 09:47:34;;;;;;;13.50;7.80;;;;;;;;;;5111523;27;20846;-67
2021/11/21 09:50:11;;;;;;;14.95;8.13;;;;;;;;;;5110978;28;20058;-66
2021/11/21 09:52:37;;;;;;;19.77;12.73;;;;;;;;;;5111165;28;20426;-67
2021/11/21 09:55:05;;;;;;;12.88;7.68;;;;;;;;;;5109952;28;20028;-67
2021/11/21 10:00:16;;;;;;;26.55;12.20;;;;;;;;;;5111641;27;20396;-66
2021/11/21 10:06:37;;;;;;;11.60;6.88;;;;;;;;;;5112004;27;20400;-66
2021/11/21 10:09:03;;;;;;;;;;;;;;;;;;5111780;28;20032;-66
2021/11/21 10:11:29;;;;;;;10.75;6.20;;;;;;;;;;5109622;28;20282;-68
2021/11/21 10:14:02;;;;;;;13.00;7.82;;;;;;;;;;5111392;28;20019;-67
2021/11/21 10:16:31;;;;;;;10.80;7.22;;;;;;;;;;5111586;28;20072;-67
2021/11/21 10:18:57;;;;;;;26.23;12.82;;;;;;;;;;5110841;28;20532;-66
2021/11/21 10:21:30;;;;;;;16.65;9.65;;;;;;;;;;5111024;28;20089;-66
2021/11/21 10:24:15;;;;;;;12.15;6.70;;;;;;;;;;5111000;28;20019;-67
2021/11/21 10:26:41;;;;;;;25.05;14.10;;;;;;;;;;5110453;28;20039;-67
2021/11/21 10:29:24;;;;;;;14.05;7.57;;;;;;;;;;5109517;28;20085;-66
2021/11/21 10:31:50;;;;;;;12.48;7.45;;;;;;;;;;5110832;28;20073;-67
2021/11/21 10:34:59;;;;;;;19.30;10.23;;;;;;;;;;5111593;27;20388;-67
2021/11/21 10:37:28;;;;;;;13.43;7.40;;;;;;;;;;5111053;28;20467;-67
2021/11/21 10:39:59;;;;;;;12.77;6.78;;;;;;;;;;5111049;28;20024;-67
2021/11/21 10:42:42;;;;;;;16.05;9.00;;;;;;;;;;5112051;27;20848;-67
2021/11/21 10:45:09;;;;;;;11.95;7.28;;;;;;;;;;5109979;28;20051;-67
2021/11/21 10:47:52;;;;;;;13.45;7.22;;;;;;;;;;5110850;28;20012;-67
2021/11/21 10:50:35;;;;;;;24.92;12.88;;;;;;;;;;5111249;28;20031;-67
2021/11/21 10:53:01;;;;;;;;;;;;;;;;;;5109963;28;20040;-67
2021/11/21 10:55:28;;;;;;;10.82;6.00;;;;;;;;;;5110726;28;20001;-68
2021/11/21 10:59:37;;;;;;;10.38;5.75;;;;;;;;;;5111384;27;20919;-68
2021/11/21 11:02:14;;;;;;;15.77;8.77;;;;;;;;;;5110899;28;20034;-68
2021/11/21 11:04:57;;;;;;;10.75;5.80;;;;;;;;;;5111207;28;20027;-67
2021/11/21 11:07:23;;;;;;;8.57;5.57;;;;;;;;;;5111282;28;20026;-67
2021/11/21 11:09:51;;;;;;;9.63;5.88;;;;;;;;;;5110895;28;20016;-66
2021/11/21 11:12:17;;;;;;;14.00;6.85;;;;;;;;;;5111127;28;20024;-67
2021/11/21 11:14:44;;;;;;;13.20;6.72;;;;;;;;;;5110744;28;20016;-66
2021/11/21 11:17:10;;;;;;;21.70;11.18;;;;;;;;;;5110973;28;20128;-66
2021/11/21 11:19:36;;;;;;;11.10;6.18;;;;;;;;;;5110843;28;20106;-67
2021/11/21 11:25:04;;;;;;;21.98;11.82;;;;;;;;;;5103207;27;1493970;-67
2021/11/21 11:29:49;;;;;;;17.80;6.75;;;;;;;;;;5111160;27;20764;-67
2021/11/21 11:32:19;;;;;;;10.15;5.85;;;;;;;;;;5109983;28;20027;-66
2021/11/21 11:34:46;;;;;;;15.77;9.25;;;;;;;;;;5111247;28;20468;-66
2021/11/21 11:37:14;;;;;;;10.70;5.75;;;;;;;;;;5110708;28;20479;-66
2021/11/21 11:41:42;;;;;;;13.45;8.95;;;;;;;;;;5091978;27;20398;-67
2021/11/21 11:44:09;;;;;;;11.77;6.47;;;;;;;;;;5090524;28;20028;-67
2021/11/21 11:46:36;;;;;;;16.88;9.43;;;;;;;;;;5090869;28;20051;-68
2021/11/21 11:50:43;;;;;;;8.65;5.15;;;;;;;;;;5111187;27;20430;-67
2021/11/21 11:53:09;;;;;;;10.10;5.22;;;;;;;;;;5111309;28;20088;-67
2021/11/21 11:55:35;;;;;;;10.98;6.35;;;;;;;;;;5109785;28;20023;-67
2021/11/21 11:58:01;;;;;;;9.63;5.20;;;;;;;;;;5110869;28;20464;-67
2021/11/21 12:01:06;;;;;;;9.65;4.88;;;;;;;;;;5112036;27;20388;-67
2021/11/21 12:03:39;;;;;;;9.65;5.03;;;;;;;;;;5111557;28;20031;-67
2021/11/21 12:06:06;;;;;;;6.93;4.20;;;;;;;;;;5109586;28;20024;-67
2021/11/21 12:08:32;;;;;;;10.02;4.85;;;;;;;;;;5111469;28;20038;-68
2021/11/21 12:10:58;;;;;;;9.32;5.25;;;;;;;;;;5109438;28;20024;-66
2021/11/21 12:13:29;;;;;;;10.85;5.07;;;;;;;;;;5111147;28;20086;-68
2021/11/21 12:16:01;;;;;;;7.30;4.32;;;;;;;;;;5111227;28;20098;-67
2021/11/21 12:18:46;;;;;;;8.40;4.20;;;;;;;;;;5109425;28;20019;-67
2021/11/21 12:21:12;;;;;;;10.43;5.93;;;;;;;;;;5110936;28;20085;-67
2021/11/21 12:23:41;;;;;;;14.55;8.23;;;;;;;;;;5110986;28;20032;-67
2021/11/21 12:26:24;;;;;;;10.57;5.72;;;;;;;;;;5110393;28;20475;-67
2021/11/21 12:29:05;;;;;;;13.68;7.03;;;;;;;;;;5111282;28;20035;-67
2021/11/21 12:35:23;;;;;;;10.25;6.13;;;;;;;;;;5091390;27;20448;-67
2021/11/21 12:37:50;;;;;;;8.30;5.30;;;;;;;;;;5091284;28;20078;-67
2021/11/21 12:40:18;;;;;;;10.68;5.25;;;;;;;;;;5090494;28;20028;-67
2021/11/21 12:45:08;;;;;;;12.68;6.22;;;;;;;;;;5111620;27;20473;-67
2021/11/21 12:47:35;;;;;;;14.48;8.07;;;;;;;;;;5111219;28;20383;-69
2021/11/21 12:50:02;;;;;;;10.57;6.57;;;;;;;;;;5111243;28;20497;-68
2021/11/21 12:52:28;;;;;;;9.13;4.68;;;;;;;;;;5111260;28;20047;-67
2021/11/21 12:54:54;;;;;;;9.65;5.00;;;;;;;;;;5109434;28;20034;-67
2021/11/21 12:58:01;;;;;;;12.80;5.75;;;;;;;;;;5112118;27;20449;-67
2021/11/21 13:00:28;;;;;;;7.57;4.18;;;;;;;;;;5110923;28;20039;-67
2021/11/21 13:02:56;;;;;;;9.18;4.47;;;;;;;;;;5111290;28;20095;-67
2021/11/21 13:06:00;;;;;;;9.65;4.30;;;;;;;;;;5111625;27;20392;-67
2021/11/21 13:08:28;;;;;;;12.82;8.05;;;;;;;;;;5111091;28;20052;-67
2021/11/21 13:10:56;;;;;;;11.23;7.53;;;;;;;;;;5111287;28;20024;-67
2021/11/21 13:13:24;;;;;;;11.52;7.18;;;;;;;;;;5111315;28;20387;-68
2021/11/21 13:15:51;;;;;;;10.60;5.32;;;;;;;;;;5110899;28;20027;-67
2021/11/21 13:18:37;;;;;;;7.20;3.53;;;;;;;;;;5111452;27;20385;-67
2021/11/21 13:21:07;;;;;;;10.02;6.07;;;;;;;;;;5111336;28;20024;-67
2021/11/21 13:25:42;;;;;;;9.80;5.65;;;;;;;;;;5112106;27;20442;-67
2021/11/21 13:28:21;;;;;;;7.47;4.57;;;;;;;;;;5097665;28;20040;-67
2021/11/21 13:31:54;;;;;;;8.25;4.53;;;;;;;;;;5111944;27;20392;-66
2021/11/21 13:34:22;;;;;;;6.50;4.22;;;;;;;;;;5111517;28;20024;-66
2021/11/21 13:36:50;;;;;;;9.13;4.25;;;;;;;;;;5110860;28;20016;-66
2021/11/21 13:39:18;;;;;;;7.03;3.75;;;;;;;;;;5111251;28;20062;-66
2021/11/21 13:41:55;;;;;;;9.25;5.47;;;;;;;;;;5111048;28;20047;-67
2021/11/21 13:44:24;;;;;;;9.20;5.97;;;;;;;;;;5109444;28;20020;-67
2021/11/21 13:46:51;;;;;;;8.80;4.88;;;;;;;;;;5111024;28;20044;-66
2021/11/21 13:49:28;;;;;;;12.32;7.68;;;;;;;;;;5109378;28;20031;-66
2021/11/21 13:52:08;;;;;;;9.40;4.70;;;;;;;;;;5109660;28;20122;-66
2021/11/21 13:54:36;;;;;;;11.82;6.50;;;;;;;;;;5110986;28;20028;-67
2021/11/21 13:57:03;;;;;;;11.35;6.80;;;;;;;;;;5110465;28;20031;-67
2021/11/21 14:01:19;;;;;;;12.85;6.40;;;;;;;;;;5112136;27;20397;-68
2021/11/21 14:03:52;;;;;;;11.95;6.82;;;;;;;;;;5110914;28;20049;-68
2021/11/21 14:06:20;;;;;;;24.42;16.08;;;;;;;;;;5111249;28;20392;-67
2021/11/21 14:11:22;;;;;;;16.45;9.80;;;;;;;;;;5110922;27;20397;-66
2021/11/21 14:13:50;;;;;;;34.17;19.13;;;;;;;;;;5111317;28;20031;-66
2021/11/21 14:16:17;;;;;;;31.58;18.48;;;;;;;;;;5111537;28;20061;-66
2021/11/21 14:21:03;;;;;;;13.20;7.60;;;;;;;;;;5111734;27;20460;-68
2021/11/21 14:23:31;;;;;;;10.05;5.07;;;;;;;;;;5110112;28;20165;-68
2021/11/21 14:25:59;;;;;;;8.18;4.18;;;;;;;;;;5110771;28;20073;-67
2021/11/21 14:30:04;;;;;;;7.07;4.68;;;;;;;;;;5111701;27;20450;-68
2021/11/21 14:32:31;;;;;;;7.10;4.03;;;;;;;;;;5110889;28;20028;-67
2021/11/21 14:34:57;;;;;;;11.18;6.90;;;;;;;;;;5109809;28;20024;-67
2021/11/21 14:37:23;;;;;;;16.27;11.52;;;;;;;;;;5109943;28;20495;-67
2021/11/21 14:39:55;;;;;;;17.20;11.75;;;;;;;;;;5110750;28;20028;-67
2021/11/21 14:44:20;;;;;;;16.27;10.25;;;;;;;;;;5111934;27;20427;-68
2021/11/21 14:46:46;;;;;;;14.95;9.35;;;;;;;;;;5110841;28;20024;-68
2021/11/21 14:50:19;;;;;;;18.70;11.65;;;;;;;;;;5111957;27;20429;-66
2021/11/21 14:52:45;;;;;;;27.75;16.25;;;;;;;;;;5110911;28;20024;-67
2021/11/21 14:55:12;;;;;;;18.92;12.55;;;;;;;;;;5111305;28;20031;-67
2021/11/21 14:57:49;;;;;;;32.30;21.17;;;;;;;;;;5111394;28;20016;-66
2021/11/21 15:02:40;;;;;;;82.10;50.15;;;;;;;;;;5111682;27;20400;-68
2021/11/21 15:05:07;;;;;;;82.28;48.15;;;;;;;;;;5111295;28;20023;-66
2021/11/21 15:10:20;;;;;;;103.03;59.83;;;;;;;;;;5111851;27;20765;-66
2021/11/21 15:14:15;;;;;;;93.35;61.25;;;;;;;;;;5111498;27;20397;-67
2021/11/21 15:17:25;;;;;;;71.85;43.97;;;;;;;;;;5111975;27;20400;-67
2021/11/21 15:21:16;;;;;;;84.15;52.33;;;;;;;;;;5111160;27;20454;-65
2021/11/21 15:23:42;;;;;;;120.47;74.70;;;;;;;;;;5111315;28;20048;-66
2021/11/21 15:28:24;;;;;;;69.07;47.10;;;;;;;;;;5111481;27;20880;-67
2021/11/21 15:32:40;;;;;;;79.97;51.67;;;;;;;;;;5111849;27;20393;-66